sensor_id;sensor_type;location;lat;lon;timestamp;temperature;humidity
4107;DHT22;21906;50.812;7.132;2023-07-31T00:01:42;19.10;72.50
4107;DHT22;21906;50.812;7.132;2023-07-31T00:04:08;19.20;72.40
4107;DHT22;21906;50.812;7.132;2023-07-31T00:06:34;19.30;72.10
4107;DHT22;21906;50.812;7.132;2023-07-31T00:08:59;19.30;72.10
4107;DHT22;21906;50.812;7.132;2023-07-31T00:11:25;19.30;72.00
4107;DHT22;21906;50.812;7.132;2023-07-31T00:13:53;19.30;72.20
4107;DHT22;21906;50.812;7.132;2023-07-31T00:16:19;19.30;72.20
4107;DHT22;21906;50.812;7.132;2023-07-31T00:18:44;19.30;72.40
4107;DHT22;21906;50.812;7.132;2023-07-31T00:21:10;19.30;72.50
4107;DHT22;21906;50.812;7.132;2023-07-31T00:23:36;19.30;72.30
4107;DHT22;21906;50.812;7.132;2023-07-31T00:26:01;19.40;72.20
4107;DHT22;21906;50.812;7.132;2023-07-31T00:28:27;19.40;72.00
4107;DHT22;21906;50.812;7.132;2023-07-31T00:30:54;19.30;72.40
4107;DHT22;21906;50.812;7.132;2023-07-31T00:33:20;19.30;72.50
4107;DHT22;21906;50.812;7.132;2023-07-31T00:35:45;19.30;72.40
4107;DHT22;21906;50.812;7.132;2023-07-31T00:38:11;19.40;71.90
4107;DHT22;21906;50.812;7.132;2023-07-31T00:40:37;19.40;71.90
4107;DHT22;21906;50.812;7.132;2023-07-31T00:43:03;19.30;72.10
4107;DHT22;21906;50.812;7.132;2023-07-31T00:45:29;19.30;72.20
4107;DHT22;21906;50.812;7.132;2023-07-31T00:47:54;19.40;71.70
4107;DHT22;21906;50.812;7.132;2023-07-31T00:50:23;19.30;72.10
4107;DHT22;21906;50.812;7.132;2023-07-31T00:52:49;19.40;72.00
4107;DHT22;21906;50.812;7.132;2023-07-31T00:55:15;19.40;72.10
4107;DHT22;21906;50.812;7.132;2023-07-31T00:57:41;19.40;71.80
4107;DHT22;21906;50.812;7.132;2023-07-31T01:00:08;19.40;71.60
4107;DHT22;21906;50.812;7.132;2023-07-31T01:02:33;19.40;71.80
4107;DHT22;21906;50.812;7.132;2023-07-31T01:05:01;19.40;71.90
4107;DHT22;21906;50.812;7.132;2023-07-31T01:07:35;19.40;71.80
4107;DHT22;21906;50.812;7.132;2023-07-31T01:10:12;19.40;71.70
4107;DHT22;21906;50.812;7.132;2023-07-31T01:12:42;19.40;71.20
4107;DHT22;21906;50.812;7.132;2023-07-31T01:15:09;19.40;71.30
4107;DHT22;21906;50.812;7.132;2023-07-31T01:17:41;19.40;71.40
4107;DHT22;21906;50.812;7.132;2023-07-31T01:20:27;19.40;71.60
4107;DHT22;21906;50.812;7.132;2023-07-31T01:23:22;19.30;71.60
4107;DHT22;21906;50.812;7.132;2023-07-31T01:26:25;19.30;71.70
4107;DHT22;21906;50.812;7.132;2023-07-31T01:29:28;19.20;72.00
4107;DHT22;21906;50.812;7.132;2023-07-31T01:31:56;19.30;71.90
4107;DHT22;21906;50.812;7.132;2023-07-31T01:34:24;19.20;72.30
4107;DHT22;21906;50.812;7.132;2023-07-31T01:36:50;19.20;72.50
4107;DHT22;21906;50.812;7.132;2023-07-31T01:39:15;19.30;72.60
4107;DHT22;21906;50.812;7.132;2023-07-31T01:41:41;19.30;72.50
4107;DHT22;21906;50.812;7.132;2023-07-31T01:44:07;19.20;72.80
4107;DHT22;21906;50.812;7.132;2023-07-31T01:46:32;19.20;73.20
4107;DHT22;21906;50.812;7.132;2023-07-31T01:48:58;19.20;73.10
4107;DHT22;21906;50.812;7.132;2023-07-31T01:51:24;19.20;73.20
4107;DHT22;21906;50.812;7.132;2023-07-31T01:53:49;19.30;73.20
4107;DHT22;21906;50.812;7.132;2023-07-31T01:56:15;19.30;73.30
4107;DHT22;21906;50.812;7.132;2023-07-31T01:58:40;19.20;73.60
4107;DHT22;21906;50.812;7.132;2023-07-31T02:01:06;19.30;73.70
4107;DHT22;21906;50.812;7.132;2023-07-31T02:03:32;19.20;73.90
4107;DHT22;21906;50.812;7.132;2023-07-31T02:05:57;19.10;74.30
4107;DHT22;21906;50.812;7.132;2023-07-31T02:08:23;19.10;74.70
4107;DHT22;21906;50.812;7.132;2023-07-31T02:10:48;19.10;74.60
4107;DHT22;21906;50.812;7.132;2023-07-31T02:13:14;19.10;74.70
4107;DHT22;21906;50.812;7.132;2023-07-31T02:15:40;19.10;74.70
4107;DHT22;21906;50.812;7.132;2023-07-31T02:18:05;19.10;74.60
4107;DHT22;21906;50.812;7.132;2023-07-31T02:20:34;19.20;74.60
4107;DHT22;21906;50.812;7.132;2023-07-31T02:23:00;19.20;74.50
4107;DHT22;21906;50.812;7.132;2023-07-31T02:25:26;19.20;74.40
4107;DHT22;21906;50.812;7.132;2023-07-31T02:27:51;19.20;74.50
4107;DHT22;21906;50.812;7.132;2023-07-31T02:30:17;19.20;74.50
4107;DHT22;21906;50.812;7.132;2023-07-31T02:32:43;19.20;74.40
4107;DHT22;21906;50.812;7.132;2023-07-31T02:35:08;19.10;74.40
4107;DHT22;21906;50.812;7.132;2023-07-31T02:37:34;19.20;74.30
4107;DHT22;21906;50.812;7.132;2023-07-31T02:40:00;19.20;74.10
4107;DHT22;21906;50.812;7.132;2023-07-31T02:42:25;19.20;73.80
4107;DHT22;21906;50.812;7.132;2023-07-31T02:44:51;19.20;73.80
4107;DHT22;21906;50.812;7.132;2023-07-31T02:47:21;19.20;73.70
4107;DHT22;21906;50.812;7.132;2023-07-31T02:49:47;19.20;73.40
4107;DHT22;21906;50.812;7.132;2023-07-31T02:52:12;19.30;73.30
4107;DHT22;21906;50.812;7.132;2023-07-31T02:54:38;19.30;73.20
4107;DHT22;21906;50.812;7.132;2023-07-31T02:57:04;19.30;73.00
4107;DHT22;21906;50.812;7.132;2023-07-31T02:59:30;19.30;73.00
4107;DHT22;21906;50.812;7.132;2023-07-31T03:01:56;19.30;72.60
4107;DHT22;21906;50.812;7.132;2023-07-31T03:04:21;19.30;72.70
4107;DHT22;21906;50.812;7.132;2023-07-31T03:06:47;19.30;72.50
4107;DHT22;21906;50.812;7.132;2023-07-31T03:09:13;19.30;72.20
4107;DHT22;21906;50.812;7.132;2023-07-31T03:11:38;19.30;72.30
4107;DHT22;21906;50.812;7.132;2023-07-31T03:14:04;19.30;72.10
4107;DHT22;21906;50.812;7.132;2023-07-31T03:16:29;19.30;72.10
4107;DHT22;21906;50.812;7.132;2023-07-31T03:18:55;19.30;71.90
4107;DHT22;21906;50.812;7.132;2023-07-31T03:21:21;19.30;71.90
4107;DHT22;21906;50.812;7.132;2023-07-31T03:23:46;19.30;72.20
4107;DHT22;21906;50.812;7.132;2023-07-31T03:26:12;19.20;72.60
4107;DHT22;21906;50.812;7.132;2023-07-31T03:28:38;19.20;72.40
4107;DHT22;21906;50.812;7.132;2023-07-31T03:31:03;19.20;72.30
4107;DHT22;21906;50.812;7.132;2023-07-31T03:33:29;19.30;72.10
4107;DHT22;21906;50.812;7.132;2023-07-31T03:35:56;19.30;71.80
4107;DHT22;21906;50.812;7.132;2023-07-31T03:38:21;19.30;71.80
4107;DHT22;21906;50.812;7.132;2023-07-31T03:40:47;19.30;72.00
4107;DHT22;21906;50.812;7.132;2023-07-31T03:43:12;19.30;71.80
4107;DHT22;21906;50.812;7.132;2023-07-31T03:45:38;19.30;71.40
4107;DHT22;21906;50.812;7.132;2023-07-31T03:48:04;19.40;71.50
4107;DHT22;21906;50.812;7.132;2023-07-31T03:50:30;19.40;71.00
4107;DHT22;21906;50.812;7.132;2023-07-31T03:52:55;19.40;70.90
4107;DHT22;21906;50.812;7.132;2023-07-31T03:55:21;19.40;70.90
4107;DHT22;21906;50.812;7.132;2023-07-31T03:57:50;19.40;70.80
4107;DHT22;21906;50.812;7.132;2023-07-31T04:00:15;19.40;70.80
4107;DHT22;21906;50.812;7.132;2023-07-31T04:02:41;19.40;71.00
4107;DHT22;21906;50.812;7.132;2023-07-31T04:05:07;19.40;71.10
4107;DHT22;21906;50.812;7.132;2023-07-31T04:07:33;19.40;70.70
4107;DHT22;21906;50.812;7.132;2023-07-31T04:09:59;19.40;70.50
4107;DHT22;21906;50.812;7.132;2023-07-31T04:12:25;19.40;70.30
4107;DHT22;21906;50.812;7.132;2023-07-31T04:14:51;19.40;70.60
4107;DHT22;21906;50.812;7.132;2023-07-31T04:17:20;19.40;70.30
4107;DHT22;21906;50.812;7.132;2023-07-31T04:19:45;19.50;70.20
4107;DHT22;21906;50.812;7.132;2023-07-31T04:22:11;19.40;70.50
4107;DHT22;21906;50.812;7.132;2023-07-31T04:24:37;19.50;70.50
4107;DHT22;21906;50.812;7.132;2023-07-31T04:27:02;19.50;70.30
4107;DHT22;21906;50.812;7.132;2023-07-31T04:29:28;19.50;70.30
4107;DHT22;21906;50.812;7.132;2023-07-31T04:31:54;19.50;70.10
4107;DHT22;21906;50.812;7.132;2023-07-31T04:34:19;19.50;70.30
4107;DHT22;21906;50.812;7.132;2023-07-31T04:36:45;19.50;70.20
4107;DHT22;21906;50.812;7.132;2023-07-31T04:39:11;19.50;70.30
4107;DHT22;21906;50.812;7.132;2023-07-31T04:41:36;19.50;70.60
4107;DHT22;21906;50.812;7.132;2023-07-31T04:44:02;19.50;70.60
4107;DHT22;21906;50.812;7.132;2023-07-31T04:46:29;19.50;70.40
4107;DHT22;21906;50.812;7.132;2023-07-31T04:48:55;19.50;70.50
4107;DHT22;21906;50.812;7.132;2023-07-31T04:51:20;19.50;70.50
4107;DHT22;21906;50.812;7.132;2023-07-31T04:53:46;19.50;70.60
4107;DHT22;21906;50.812;7.132;2023-07-31T04:56:12;19.60;70.40
4107;DHT22;21906;50.812;7.132;2023-07-31T04:58:38;19.60;70.40
4107;DHT22;21906;50.812;7.132;2023-07-31T05:01:03;19.70;70.20
4107;DHT22;21906;50.812;7.132;2023-07-31T05:03:29;19.70;70.00
4107;DHT22;21906;50.812;7.132;2023-07-31T05:05:55;19.70;69.90
4107;DHT22;21906;50.812;7.132;2023-07-31T05:08:20;19.70;69.90
4107;DHT22;21906;50.812;7.132;2023-07-31T05:10:46;19.80;70.00
4107;DHT22;21906;50.812;7.132;2023-07-31T05:13:12;19.80;70.20
4107;DHT22;21906;50.812;7.132;2023-07-31T05:15:38;19.80;70.30
4107;DHT22;21906;50.812;7.132;2023-07-31T05:18:03;19.80;70.30
4107;DHT22;21906;50.812;7.132;2023-07-31T05:20:29;19.90;70.20
4107;DHT22;21906;50.812;7.132;2023-07-31T05:22:55;19.80;70.10
4107;DHT22;21906;50.812;7.132;2023-07-31T05:25:20;19.80;70.50
4107;DHT22;21906;50.812;7.132;2023-07-31T05:27:46;19.80;70.60
4107;DHT22;21906;50.812;7.132;2023-07-31T05:30:11;19.90;70.70
4107;DHT22;21906;50.812;7.132;2023-07-31T05:32:37;19.90;70.70
4107;DHT22;21906;50.812;7.132;2023-07-31T05:35:03;19.90;70.40
4107;DHT22;21906;50.812;7.132;2023-07-31T05:37:29;19.90;70.40
4107;DHT22;21906;50.812;7.132;2023-07-31T05:39:54;20.00;70.10
4107;DHT22;21906;50.812;7.132;2023-07-31T05:42:20;20.00;69.90
4107;DHT22;21906;50.812;7.132;2023-07-31T05:44:46;19.90;69.80
4107;DHT22;21906;50.812;7.132;2023-07-31T05:47:12;20.00;69.20
4107;DHT22;21906;50.812;7.132;2023-07-31T05:49:38;20.00;69.00
4107;DHT22;21906;50.812;7.132;2023-07-31T05:52:03;20.00;69.30
4107;DHT22;21906;50.812;7.132;2023-07-31T05:54:29;19.90;69.40
4107;DHT22;21906;50.812;7.132;2023-07-31T05:56:55;19.90;69.70
4107;DHT22;21906;50.812;7.132;2023-07-31T05:59:21;20.00;69.30
4107;DHT22;21906;50.812;7.132;2023-07-31T06:01:46;20.00;69.30
4107;DHT22;21906;50.812;7.132;2023-07-31T06:04:12;20.00;69.70
4107;DHT22;21906;50.812;7.132;2023-07-31T06:06:38;20.00;69.50
4107;DHT22;21906;50.812;7.132;2023-07-31T06:09:03;20.00;69.50
4107;DHT22;21906;50.812;7.132;2023-07-31T06:11:29;20.00;69.90
4107;DHT22;21906;50.812;7.132;2023-07-31T06:13:55;20.00;69.90
4107;DHT22;21906;50.812;7.132;2023-07-31T06:16:20;20.00;69.50
4107;DHT22;21906;50.812;7.132;2023-07-31T06:18:47;19.90;69.70
4107;DHT22;21906;50.812;7.132;2023-07-31T06:21:12;19.90;69.70
4107;DHT22;21906;50.812;7.132;2023-07-31T06:23:38;20.00;69.50
4107;DHT22;21906;50.812;7.132;2023-07-31T06:26:04;20.00;69.60
4107;DHT22;21906;50.812;7.132;2023-07-31T06:28:31;19.90;70.20
4107;DHT22;21906;50.812;7.132;2023-07-31T06:30:58;20.00;70.30
4107;DHT22;21906;50.812;7.132;2023-07-31T06:33:24;19.90;70.80
4107;DHT22;21906;50.812;7.132;2023-07-31T06:35:50;20.00;70.90
4107;DHT22;21906;50.812;7.132;2023-07-31T06:38:18;19.90;71.20
4107;DHT22;21906;50.812;7.132;2023-07-31T06:40:44;20.00;71.50
4107;DHT22;21906;50.812;7.132;2023-07-31T06:43:10;20.00;72.30
4107;DHT22;21906;50.812;7.132;2023-07-31T06:45:36;20.00;72.70
4107;DHT22;21906;50.812;7.132;2023-07-31T06:48:03;20.00;72.70
4107;DHT22;21906;50.812;7.132;2023-07-31T06:50:32;20.00;73.50
4107;DHT22;21906;50.812;7.132;2023-07-31T06:52:58;20.00;73.60
4107;DHT22;21906;50.812;7.132;2023-07-31T06:55:25;19.90;74.60
4107;DHT22;21906;50.812;7.132;2023-07-31T06:57:53;19.90;75.20
4107;DHT22;21906;50.812;7.132;2023-07-31T07:00:20;19.90;75.30
4107;DHT22;21906;50.812;7.132;2023-07-31T07:02:46;20.00;75.60
4107;DHT22;21906;50.812;7.132;2023-07-31T07:05:13;20.00;75.60
4107;DHT22;21906;50.812;7.132;2023-07-31T07:07:40;20.10;76.00
4107;DHT22;21906;50.812;7.132;2023-07-31T07:10:06;20.20;76.30
4107;DHT22;21906;50.812;7.132;2023-07-31T07:12:32;20.30;76.50
4107;DHT22;21906;50.812;7.132;2023-07-31T07:14:59;20.40;76.50
4107;DHT22;21906;50.812;7.132;2023-07-31T07:17:26;20.50;76.70
4107;DHT22;21906;50.812;7.132;2023-07-31T07:19:52;20.60;76.20
4107;DHT22;21906;50.812;7.132;2023-07-31T07:22:18;20.80;75.70
4107;DHT22;21906;50.812;7.132;2023-07-31T07:24:43;20.90;75.10
4107;DHT22;21906;50.812;7.132;2023-07-31T07:27:09;20.90;74.70
4107;DHT22;21906;50.812;7.132;2023-07-31T07:29:35;21.00;74.20
4107;DHT22;21906;50.812;7.132;2023-07-31T07:32:01;21.00;74.20
4107;DHT22;21906;50.812;7.132;2023-07-31T07:34:27;21.00;73.40
4107;DHT22;21906;50.812;7.132;2023-07-31T07:36:53;20.90;73.50
4107;DHT22;21906;50.812;7.132;2023-07-31T07:39:19;20.90;73.60
4107;DHT22;21906;50.812;7.132;2023-07-31T07:41:46;20.90;73.90
4107;DHT22;21906;50.812;7.132;2023-07-31T07:44:12;20.70;73.40
4107;DHT22;21906;50.812;7.132;2023-07-31T07:46:38;20.70;73.70
4107;DHT22;21906;50.812;7.132;2023-07-31T07:49:04;20.60;73.80
4107;DHT22;21906;50.812;7.132;2023-07-31T07:51:30;20.40;74.50
4107;DHT22;21906;50.812;7.132;2023-07-31T07:53:57;20.40;74.80
4107;DHT22;21906;50.812;7.132;2023-07-31T07:56:27;20.40;75.40
4107;DHT22;21906;50.812;7.132;2023-07-31T07:58:53;20.30;75.70
4107;DHT22;21906;50.812;7.132;2023-07-31T08:01:19;20.30;75.90
4107;DHT22;21906;50.812;7.132;2023-07-31T08:03:45;20.30;74.50
4107;DHT22;21906;50.812;7.132;2023-07-31T08:06:10;20.20;74.90
4107;DHT22;21906;50.812;7.132;2023-07-31T08:08:37;20.10;75.90
4107;DHT22;21906;50.812;7.132;2023-07-31T08:11:03;20.00;75.60
4107;DHT22;21906;50.812;7.132;2023-07-31T08:13:29;20.00;75.70
4107;DHT22;21906;50.812;7.132;2023-07-31T08:15:55;20.00;76.00
4107;DHT22;21906;50.812;7.132;2023-07-31T08:18:21;20.10;75.30
4107;DHT22;21906;50.812;7.132;2023-07-31T08:20:47;20.10;75.60
4107;DHT22;21906;50.812;7.132;2023-07-31T08:23:12;20.10;75.50
4107;DHT22;21906;50.812;7.132;2023-07-31T08:25:39;20.10;75.20
4107;DHT22;21906;50.812;7.132;2023-07-31T08:28:06;20.20;75.30
4107;DHT22;21906;50.812;7.132;2023-07-31T08:30:32;20.30;75.30
4107;DHT22;21906;50.812;7.132;2023-07-31T08:32:59;20.30;74.80
4107;DHT22;21906;50.812;7.132;2023-07-31T08:35:25;20.30;75.20
4107;DHT22;21906;50.812;7.132;2023-07-31T08:37:51;20.20;75.20
4107;DHT22;21906;50.812;7.132;2023-07-31T08:40:17;20.20;75.80
4107;DHT22;21906;50.812;7.132;2023-07-31T08:42:47;20.30;76.40
4107;DHT22;21906;50.812;7.132;2023-07-31T08:45:15;20.20;76.10
4107;DHT22;21906;50.812;7.132;2023-07-31T08:47:45;20.20;76.40
4107;DHT22;21906;50.812;7.132;2023-07-31T08:50:17;20.20;76.70
4107;DHT22;21906;50.812;7.132;2023-07-31T08:52:43;20.30;77.10
4107;DHT22;21906;50.812;7.132;2023-07-31T08:55:09;20.20;77.40
4107;DHT22;21906;50.812;7.132;2023-07-31T08:57:37;20.20;77.50
4107;DHT22;21906;50.812;7.132;2023-07-31T09:00:08;20.20;77.90
4107;DHT22;21906;50.812;7.132;2023-07-31T09:02:54;20.30;77.90
4107;DHT22;21906;50.812;7.132;2023-07-31T09:05:21;20.20;77.90
4107;DHT22;21906;50.812;7.132;2023-07-31T09:07:49;20.20;78.00
4107;DHT22;21906;50.812;7.132;2023-07-31T09:10:15;20.30;78.10
4107;DHT22;21906;50.812;7.132;2023-07-31T09:12:41;20.30;78.30
4107;DHT22;21906;50.812;7.132;2023-07-31T09:15:08;20.30;78.00
4107;DHT22;21906;50.812;7.132;2023-07-31T09:17:37;20.40;77.50
4107;DHT22;21906;50.812;7.132;2023-07-31T09:20:19;20.40;77.30
4107;DHT22;21906;50.812;7.132;2023-07-31T09:22:46;20.40;76.90
4107;DHT22;21906;50.812;7.132;2023-07-31T09:25:17;20.40;76.80
4107;DHT22;21906;50.812;7.132;2023-07-31T09:28:03;20.40;77.00
4107;DHT22;21906;50.812;7.132;2023-07-31T09:30:30;20.40;77.20
4107;DHT22;21906;50.812;7.132;2023-07-31T09:33:03;20.40;77.50
4107;DHT22;21906;50.812;7.132;2023-07-31T09:35:33;20.40;77.50
4107;DHT22;21906;50.812;7.132;2023-07-31T09:38:02;20.40;77.70
4107;DHT22;21906;50.812;7.132;2023-07-31T09:40:31;20.40;78.00
4107;DHT22;21906;50.812;7.132;2023-07-31T09:42:59;20.40;77.90
4107;DHT22;21906;50.812;7.132;2023-07-31T09:45:25;20.40;77.90
4107;DHT22;21906;50.812;7.132;2023-07-31T09:47:51;20.40;77.80
4107;DHT22;21906;50.812;7.132;2023-07-31T09:50:17;20.30;77.80
4107;DHT22;21906;50.812;7.132;2023-07-31T09:52:43;20.30;76.90
4107;DHT22;21906;50.812;7.132;2023-07-31T09:55:10;20.30;76.80
4107;DHT22;21906;50.812;7.132;2023-07-31T09:57:41;20.40;77.20
4107;DHT22;21906;50.812;7.132;2023-07-31T10:00:09;20.40;77.60
4107;DHT22;21906;50.812;7.132;2023-07-31T10:02:36;20.40;77.80
4107;DHT22;21906;50.812;7.132;2023-07-31T10:05:03;20.40;77.90
4107;DHT22;21906;50.812;7.132;2023-07-31T10:07:30;20.40;78.00
4107;DHT22;21906;50.812;7.132;2023-07-31T10:10:00;20.40;77.80
4107;DHT22;21906;50.812;7.132;2023-07-31T10:12:27;20.50;77.90
4107;DHT22;21906;50.812;7.132;2023-07-31T10:14:55;20.50;78.00
4107;DHT22;21906;50.812;7.132;2023-07-31T10:17:22;20.50;77.80
4107;DHT22;21906;50.812;7.132;2023-07-31T10:19:49;20.60;77.80
4107;DHT22;21906;50.812;7.132;2023-07-31T10:22:16;20.60;77.70
4107;DHT22;21906;50.812;7.132;2023-07-31T10:24:48;20.60;78.20
4107;DHT22;21906;50.812;7.132;2023-07-31T10:27:15;20.70;78.00
4107;DHT22;21906;50.812;7.132;2023-07-31T10:29:43;20.70;77.60
4107;DHT22;21906;50.812;7.132;2023-07-31T10:32:13;20.80;77.70
4107;DHT22;21906;50.812;7.132;2023-07-31T10:34:40;20.80;77.80
4107;DHT22;21906;50.812;7.132;2023-07-31T10:37:25;20.90;77.50
4107;DHT22;21906;50.812;7.132;2023-07-31T10:40:04;21.00;76.90
4107;DHT22;21906;50.812;7.132;2023-07-31T10:42:47;21.00;77.00
4107;DHT22;21906;50.812;7.132;2023-07-31T10:45:23;21.20;77.20
4107;DHT22;21906;50.812;7.132;2023-07-31T10:48:02;21.30;77.20
4107;DHT22;21906;50.812;7.132;2023-07-31T10:50:29;21.40;71.60
4107;DHT22;21906;50.812;7.132;2023-07-31T10:52:56;21.40;68.70
4107;DHT22;21906;50.812;7.132;2023-07-31T10:55:41;21.40;68.80
4107;DHT22;21906;50.812;7.132;2023-07-31T10:58:12;21.40;67.50
4107;DHT22;21906;50.812;7.132;2023-07-31T11:00:42;21.40;67.30
4107;DHT22;21906;50.812;7.132;2023-07-31T11:03:16;21.40;67.40
4107;DHT22;21906;50.812;7.132;2023-07-31T11:06:01;21.30;66.60
4107;DHT22;21906;50.812;7.132;2023-07-31T11:08:29;21.30;66.10
4107;DHT22;21906;50.812;7.132;2023-07-31T11:13:31;21.20;67.30
4107;DHT22;21906;50.812;7.132;2023-07-31T11:15:57;21.20;68.00
4107;DHT22;21906;50.812;7.132;2023-07-31T11:18:23;21.20;67.60
4107;DHT22;21906;50.812;7.132;2023-07-31T11:20:49;21.10;67.70
4107;DHT22;21906;50.812;7.132;2023-07-31T11:23:17;21.20;67.00
4107;DHT22;21906;50.812;7.132;2023-07-31T11:25:43;21.20;66.30
4107;DHT22;21906;50.812;7.132;2023-07-31T11:28:11;21.20;67.60
4107;DHT22;21906;50.812;7.132;2023-07-31T11:30:37;21.20;67.40
4107;DHT22;21906;50.812;7.132;2023-07-31T11:33:05;21.20;67.40
4107;DHT22;21906;50.812;7.132;2023-07-31T11:35:36;21.10;68.60
4107;DHT22;21906;50.812;7.132;2023-07-31T11:38:02;20.90;69.70
4107;DHT22;21906;50.812;7.132;2023-07-31T11:40:28;20.90;69.70
4107;DHT22;21906;50.812;7.132;2023-07-31T11:42:59;20.90;70.10
4107;DHT22;21906;50.812;7.132;2023-07-31T11:45:30;20.90;70.40
4107;DHT22;21906;50.812;7.132;2023-07-31T11:51:20;21.00;70.50
4107;DHT22;21906;50.812;7.132;2023-07-31T11:53:51;21.30;70.20
4107;DHT22;21906;50.812;7.132;2023-07-31T11:56:20;21.40;71.70
4107;DHT22;21906;50.812;7.132;2023-07-31T11:58:48;21.60;70.30
4107;DHT22;21906;50.812;7.132;2023-07-31T12:01:21;21.70;69.40
4107;DHT22;21906;50.812;7.132;2023-07-31T12:03:48;22.00;69.80
4107;DHT22;21906;50.812;7.132;2023-07-31T12:06:14;22.20;68.90
4107;DHT22;21906;50.812;7.132;2023-07-31T12:08:40;22.30;67.50
4107;DHT22;21906;50.812;7.132;2023-07-31T12:11:07;22.30;69.10
4107;DHT22;21906;50.812;7.132;2023-07-31T12:13:35;22.50;67.40
4107;DHT22;21906;50.812;7.132;2023-07-31T12:16:03;22.60;67.50
4107;DHT22;21906;50.812;7.132;2023-07-31T12:18:33;22.60;69.00
4107;DHT22;21906;50.812;7.132;2023-07-31T12:21:01;22.60;68.20
4107;DHT22;21906;50.812;7.132;2023-07-31T12:23:29;22.70;67.60
4107;DHT22;21906;50.812;7.132;2023-07-31T12:26:11;22.70;67.50
4107;DHT22;21906;50.812;7.132;2023-07-31T12:28:45;22.60;65.40
4107;DHT22;21906;50.812;7.132;2023-07-31T12:31:22;22.50;64.80
4107;DHT22;21906;50.812;7.132;2023-07-31T12:33:49;22.40;64.60
4107;DHT22;21906;50.812;7.132;2023-07-31T12:36:23;22.30;64.70
4107;DHT22;21906;50.812;7.132;2023-07-31T12:38:54;22.20;65.00
4107;DHT22;21906;50.812;7.132;2023-07-31T12:41:21;22.20;65.50
4107;DHT22;21906;50.812;7.132;2023-07-31T12:43:47;22.10;64.80
4107;DHT22;21906;50.812;7.132;2023-07-31T12:46:13;21.90;65.80
4107;DHT22;21906;50.812;7.132;2023-07-31T12:48:39;21.80;66.30
4107;DHT22;21906;50.812;7.132;2023-07-31T12:51:05;21.80;66.10
4107;DHT22;21906;50.812;7.132;2023-07-31T12:53:34;21.80;65.50
4107;DHT22;21906;50.812;7.132;2023-07-31T12:56:00;21.70;65.80
4107;DHT22;21906;50.812;7.132;2023-07-31T12:58:26;21.60;66.00
4107;DHT22;21906;50.812;7.132;2023-07-31T13:00:52;21.60;66.20
4107;DHT22;21906;50.812;7.132;2023-07-31T13:03:17;21.70;66.80
4107;DHT22;21906;50.812;7.132;2023-07-31T13:05:43;21.70;66.40
4107;DHT22;21906;50.812;7.132;2023-07-31T13:08:09;21.90;66.50
4107;DHT22;21906;50.812;7.132;2023-07-31T13:10:35;21.90;66.50
4107;DHT22;21906;50.812;7.132;2023-07-31T13:13:00;22.10;66.20
4107;DHT22;21906;50.812;7.132;2023-07-31T13:15:26;22.20;66.20
4107;DHT22;21906;50.812;7.132;2023-07-31T13:17:52;22.30;65.50
4107;DHT22;21906;50.812;7.132;2023-07-31T13:20:17;22.40;65.00
4107;DHT22;21906;50.812;7.132;2023-07-31T13:22:43;22.30;63.70
4107;DHT22;21906;50.812;7.132;2023-07-31T13:25:09;22.30;63.80
4107;DHT22;21906;50.812;7.132;2023-07-31T13:27:35;22.30;63.60
4107;DHT22;21906;50.812;7.132;2023-07-31T13:30:01;22.20;64.00
4107;DHT22;21906;50.812;7.132;2023-07-31T13:32:27;22.10;64.50
4107;DHT22;21906;50.812;7.132;2023-07-31T13:34:53;22.10;64.30
4107;DHT22;21906;50.812;7.132;2023-07-31T13:37:19;22.00;64.30
4107;DHT22;21906;50.812;7.132;2023-07-31T13:39:45;22.00;64.40
4107;DHT22;21906;50.812;7.132;2023-07-31T13:42:10;22.00;64.00
4107;DHT22;21906;50.812;7.132;2023-07-31T13:44:41;22.00;64.00
4107;DHT22;21906;50.812;7.132;2023-07-31T13:47:08;22.20;63.80
4107;DHT22;21906;50.812;7.132;2023-07-31T13:49:34;22.20;63.90
4107;DHT22;21906;50.812;7.132;2023-07-31T13:52:00;22.30;63.60
4107;DHT22;21906;50.812;7.132;2023-07-31T13:54:27;22.40;62.60
4107;DHT22;21906;50.812;7.132;2023-07-31T13:56:53;22.40;62.10
4107;DHT22;21906;50.812;7.132;2023-07-31T13:59:19;22.50;62.80
4107;DHT22;21906;50.812;7.132;2023-07-31T14:01:45;22.70;61.70
4107;DHT22;21906;50.812;7.132;2023-07-31T14:04:11;22.70;61.60
4107;DHT22;21906;50.812;7.132;2023-07-31T14:06:38;22.90;61.60
4107;DHT22;21906;50.812;7.132;2023-07-31T14:09:04;22.90;61.60
4107;DHT22;21906;50.812;7.132;2023-07-31T14:11:33;23.00;60.80
4107;DHT22;21906;50.812;7.132;2023-07-31T14:13:59;23.00;60.30
4107;DHT22;21906;50.812;7.132;2023-07-31T14:16:27;23.00;60.80
4107;DHT22;21906;50.812;7.132;2023-07-31T14:18:53;22.90;61.00
4107;DHT22;21906;50.812;7.132;2023-07-31T14:21:19;22.70;61.20
4107;DHT22;21906;50.812;7.132;2023-07-31T14:23:45;22.50;61.70
4107;DHT22;21906;50.812;7.132;2023-07-31T14:26:11;22.40;62.10
4107;DHT22;21906;50.812;7.132;2023-07-31T14:28:38;22.30;61.90
4107;DHT22;21906;50.812;7.132;2023-07-31T14:31:04;22.20;62.90
4107;DHT22;21906;50.812;7.132;2023-07-31T14:33:30;22.10;63.10
4107;DHT22;21906;50.812;7.132;2023-07-31T14:35:56;21.90;63.90
4107;DHT22;21906;50.812;7.132;2023-07-31T14:38:21;21.90;63.30
4107;DHT22;21906;50.812;7.132;2023-07-31T14:40:47;21.90;63.00
4107;DHT22;21906;50.812;7.132;2023-07-31T14:43:13;21.80;63.60
4107;DHT22;21906;50.812;7.132;2023-07-31T14:45:42;21.80;63.50
4107;DHT22;21906;50.812;7.132;2023-07-31T14:48:08;21.70;63.80
4107;DHT22;21906;50.812;7.132;2023-07-31T14:50:34;21.70;63.70
4107;DHT22;21906;50.812;7.132;2023-07-31T14:53:00;21.60;63.90
4107;DHT22;21906;50.812;7.132;2023-07-31T14:55:26;21.60;64.20
4107;DHT22;21906;50.812;7.132;2023-07-31T14:57:51;21.60;64.20
4107;DHT22;21906;50.812;7.132;2023-07-31T15:00:17;21.50;64.40
4107;DHT22;21906;50.812;7.132;2023-07-31T15:02:43;21.40;64.50
4107;DHT22;21906;50.812;7.132;2023-07-31T15:05:09;21.50;64.90
4107;DHT22;21906;50.812;7.132;2023-07-31T15:07:35;21.50;64.50
4107;DHT22;21906;50.812;7.132;2023-07-31T15:10:04;21.40;64.80
4107;DHT22;21906;50.812;7.132;2023-07-31T15:12:31;21.40;64.80
4107;DHT22;21906;50.812;7.132;2023-07-31T15:14:57;21.50;65.10
4107;DHT22;21906;50.812;7.132;2023-07-31T15:17:23;21.40;64.60
4107;DHT22;21906;50.812;7.132;2023-07-31T15:19:49;21.40;64.60
4107;DHT22;21906;50.812;7.132;2023-07-31T15:22:15;21.40;64.50
4107;DHT22;21906;50.812;7.132;2023-07-31T15:24:41;21.40;64.90
4107;DHT22;21906;50.812;7.132;2023-07-31T15:27:06;21.40;64.90
4107;DHT22;21906;50.812;7.132;2023-07-31T15:29:34;21.40;65.20
4107;DHT22;21906;50.812;7.132;2023-07-31T15:32:04;21.30;65.30
4107;DHT22;21906;50.812;7.132;2023-07-31T15:34:30;21.40;64.90
4107;DHT22;21906;50.812;7.132;2023-07-31T15:36:55;21.40;65.40
4107;DHT22;21906;50.812;7.132;2023-07-31T15:39:21;21.40;65.20
4107;DHT22;21906;50.812;7.132;2023-07-31T15:41:47;21.40;65.10
4107;DHT22;21906;50.812;7.132;2023-07-31T15:44:13;21.50;65.00
4107;DHT22;21906;50.812;7.132;2023-07-31T15:46:42;21.50;64.70
4107;DHT22;21906;50.812;7.132;2023-07-31T15:49:07;21.40;65.00
4107;DHT22;21906;50.812;7.132;2023-07-31T15:51:34;21.50;65.00